Canton, Massachusetts
Current Conditions -  °F | °C
As of 2:53 PM on Friday 31 Oct 2014 (Local Time) from KOWD Reporting Station
Overcast Overcast  
Wind Chill: 52°   Ceiling: 4700
Heat Index: 52°   Visibility: 10mi
Dew Point: 38°   Wind: 9mph
Humidity: 59%   Direction: 70°ENE
Pressure: 29.97"   Gusts: NA
Location:  42.16°N, 71.14°W
Report Text: KOWD 311853Z 07008KT 10SM OVC047 11/03 A2997 RMK AO2 SLP147 T01110033
Loading
Personal Weather Stations






























Interactive Weather Map
Tropical Storm Tracking
New forecast layout! Learn more

10-Day Weather Forecast

Advertisements
Track Severe Weather on mobile